createdAt,value
2023-05-01T00:00:22.687Z,22.56
2023-05-01T00:01:22.727Z,22.55
2023-05-01T00:02:22.823Z,22.54
2023-05-01T00:03:22.922Z,22.54
2023-05-01T00:04:22.914Z,22.54
2023-05-01T00:05:22.959Z,22.55
2023-05-01T00:06:23.021Z,22.54
2023-05-01T00:07:23.057Z,22.54
2023-05-01T00:08:23.109Z,22.54
2023-05-01T00:09:23.166Z,22.54
2023-05-01T00:10:23.224Z,22.54
2023-05-01T00:11:23.277Z,22.54
2023-05-01T00:12:23.322Z,22.54
2023-05-01T00:13:23.368Z,22.55
2023-05-01T00:14:23.428Z,22.54
2023-05-01T00:15:23.484Z,22.54
2023-05-01T00:16:23.570Z,22.54
2023-05-01T00:17:23.602Z,22.54
2023-05-01T00:18:23.638Z,22.53
2023-05-01T00:19:23.682Z,22.54
2023-05-01T00:20:23.731Z,22.53
2023-05-01T00:21:23.776Z,22.54
2023-05-01T00:22:23.839Z,22.54
2023-05-01T00:23:23.882Z,22.54
2023-05-01T00:24:23.934Z,22.53
2023-05-01T00:25:23.985Z,22.53
2023-05-01T00:26:24.039Z,22.53
2023-05-01T00:27:24.097Z,22.53
2023-05-01T00:28:24.145Z,22.53
2023-05-01T00:29:24.318Z,22.53
2023-05-01T00:30:24.248Z,22.53
2023-05-01T00:31:24.367Z,22.53
2023-05-01T00:32:24.424Z,22.53
2023-05-01T00:33:24.387Z,22.53
2023-05-01T00:34:24.427Z,22.52
2023-05-01T00:35:24.489Z,22.53
2023-05-01T00:36:24.565Z,22.53
2023-05-01T00:37:24.601Z,22.52
2023-05-01T00:38:24.658Z,22.53
2023-05-01T00:39:24.721Z,22.53
2023-05-01T00:40:24.760Z,22.52
2023-05-01T00:41:24.822Z,22.52
2023-05-01T00:42:24.869Z,22.53
2023-05-01T00:43:24.919Z,22.52
2023-05-01T00:44:24.975Z,22.52
2023-05-01T00:45:25.022Z,22.51
2023-05-01T00:46:25.150Z,22.52
2023-05-01T00:47:25.204Z,22.52
2023-05-01T00:48:25.186Z,22.51
2023-05-01T00:49:25.245Z,22.52
2023-05-01T00:50:25.302Z,22.52
2023-05-01T00:51:25.365Z,22.52
2023-05-01T00:52:25.421Z,22.51
2023-05-01T00:53:25.475Z,22.52
2023-05-01T00:54:25.502Z,22.51
2023-05-01T00:55:25.546Z,22.51
2023-05-01T00:56:25.589Z,22.51
2023-05-01T00:57:25.644Z,22.51
2023-05-01T00:58:25.700Z,22.51
2023-05-01T00:59:25.757Z,22.51
2023-05-01T01:00:25.825Z,22.51
2023-05-01T01:01:25.916Z,22.51
2023-05-01T01:02:25.940Z,22.51
2023-05-01T01:03:25.985Z,22.51
2023-05-01T01:04:26.103Z,22.50
2023-05-01T01:05:26.111Z,22.51
2023-05-01T01:06:26.198Z,22.51
2023-05-01T01:07:26.209Z,22.51
2023-05-01T01:08:26.263Z,22.51
2023-05-01T01:09:26.320Z,22.50
2023-05-01T01:10:26.374Z,22.50
2023-05-01T01:11:26.441Z,22.50
2023-05-01T01:12:26.500Z,22.50
2023-05-01T01:13:26.548Z,22.50
2023-05-01T01:14:26.605Z,22.50
2023-05-01T01:15:26.658Z,22.50
2023-05-01T01:16:26.780Z,22.50
2023-05-01T01:17:26.796Z,22.50
2023-05-01T01:18:26.812Z,22.50
2023-05-01T01:19:26.879Z,22.50
2023-05-01T01:20:26.935Z,22.50
2023-05-01T01:21:26.989Z,22.49
2023-05-01T01:22:27.061Z,22.49
2023-05-01T01:23:27.109Z,22.49
2023-05-01T01:24:27.140Z,22.50
2023-05-01T01:25:27.206Z,22.49
2023-05-01T01:26:27.242Z,22.49
2023-05-01T01:27:27.250Z,22.49
2023-05-01T01:28:27.269Z,22.49
2023-05-01T01:29:27.308Z,22.48
2023-05-01T01:30:27.364Z,22.48
2023-05-01T01:31:27.454Z,22.49
2023-05-01T01:32:27.545Z,22.49
2023-05-01T01:33:27.522Z,22.49
2023-05-01T01:34:27.592Z,22.49
2023-05-01T01:35:27.640Z,22.49
2023-05-01T01:36:27.689Z,22.48
2023-05-01T01:37:27.752Z,22.49
2023-05-01T01:38:27.796Z,22.48
2023-05-01T01:39:27.856Z,22.48
2023-05-01T01:40:27.913Z,22.48
2023-05-01T01:41:27.952Z,22.49
2023-05-01T01:42:28.017Z,22.48
2023-05-01T01:43:28.063Z,22.48
2023-05-01T01:44:28.102Z,22.49
2023-05-01T01:45:28.176Z,22.48
2023-05-01T01:46:28.291Z,22.48
2023-05-01T01:47:28.401Z,22.48
2023-05-01T01:48:28.330Z,22.48
2023-05-01T01:49:28.388Z,22.48
2023-05-01T01:50:28.441Z,22.48
2023-05-01T01:51:28.484Z,22.48
2023-05-01T01:52:28.530Z,22.47
2023-05-01T01:53:28.592Z,22.47
2023-05-01T01:54:28.635Z,22.47
2023-05-01T01:55:28.702Z,22.48
2023-05-01T01:56:28.763Z,22.47
2023-05-01T01:57:28.807Z,22.47
2023-05-01T01:58:28.861Z,22.48
2023-05-01T01:59:28.931Z,22.47
2023-05-01T02:00:28.972Z,22.47
2023-05-01T02:01:29.055Z,22.47
2023-05-01T02:02:29.166Z,22.47
2023-05-01T02:03:29.197Z,22.47
2023-05-01T02:04:29.200Z,22.46
2023-05-01T02:05:29.256Z,22.47
2023-05-01T02:06:29.345Z,22.47
2023-05-01T02:07:29.340Z,22.47
2023-05-01T02:08:29.377Z,22.47
2023-05-01T02:09:29.434Z,22.47
2023-05-01T02:10:29.489Z,22.47
2023-05-01T02:11:29.555Z,22.47
2023-05-01T02:12:29.609Z,22.46
2023-05-01T02:13:29.661Z,22.46
2023-05-01T02:14:29.716Z,22.46
2023-05-01T02:15:29.770Z,22.46
2023-05-01T02:16:29.856Z,22.46
2023-05-01T02:17:29.918Z,22.45
2023-05-01T02:18:29.933Z,22.46
2023-05-01T02:19:29.986Z,22.46
2023-05-01T02:20:30.046Z,22.46
2023-05-01T02:21:30.097Z,22.46
2023-05-01T02:22:30.134Z,22.45
2023-05-01T02:23:30.189Z,22.46
2023-05-01T02:24:30.246Z,22.46
2023-05-01T02:25:30.315Z,22.46
2023-05-01T02:26:30.370Z,22.45
2023-05-01T02:27:30.426Z,22.45
2023-05-01T02:28:30.476Z,22.45
2023-05-01T02:29:30.522Z,22.45
2023-05-01T02:30:30.587Z,22.45
2023-05-01T02:31:30.673Z,22.45
2023-05-01T02:32:30.709Z,22.44
2023-05-01T02:33:30.750Z,22.45
2023-05-01T02:34:30.810Z,22.45
2023-05-01T02:35:30.860Z,22.45
2023-05-01T02:36:30.950Z,22.45
2023-05-01T02:37:30.988Z,22.45
2023-05-01T02:38:31.035Z,22.45
2023-05-01T02:39:31.089Z,22.45
2023-05-01T02:40:31.130Z,22.44
2023-05-01T02:41:31.179Z,22.45
2023-05-01T02:42:31.223Z,22.44
2023-05-01T02:43:31.263Z,22.44
2023-05-01T02:44:31.312Z,22.44
2023-05-01T02:45:31.423Z,22.43
2023-05-01T02:46:31.507Z,22.45
2023-05-01T02:47:31.555Z,22.44
2023-05-01T02:48:31.548Z,22.43
2023-05-01T02:49:31.607Z,22.44
2023-05-01T02:50:31.652Z,22.43
2023-05-01T02:51:31.721Z,22.43
2023-05-01T02:52:31.789Z,22.43
2023-05-01T02:53:31.833Z,22.43
2023-05-01T02:54:31.899Z,22.43
2023-05-01T02:55:31.960Z,22.43
2023-05-01T02:56:32.024Z,22.43
2023-05-01T02:57:32.086Z,22.43
2023-05-01T02:58:32.130Z,22.43
2023-05-01T02:59:32.186Z,22.42
2023-05-01T03:00:32.235Z,22.42
2023-05-01T03:01:32.335Z,22.42
2023-05-01T03:02:32.497Z,22.42
2023-05-01T03:03:32.422Z,22.43
2023-05-01T03:04:32.513Z,22.43
2023-05-01T03:05:32.517Z,22.42
2023-05-01T03:06:32.693Z,22.42
2023-05-01T03:07:32.627Z,22.42
2023-05-01T03:08:33.595Z,22.42
2023-05-01T03:09:32.755Z,22.43
2023-05-01T03:10:32.803Z,22.41
2023-05-01T03:11:32.869Z,22.41
2023-05-01T03:12:32.929Z,22.42
2023-05-01T03:13:33.044Z,22.42
2023-05-01T03:14:33.037Z,22.42
2023-05-01T03:15:33.099Z,22.42
2023-05-01T03:16:33.175Z,22.41
2023-05-01T03:17:33.250Z,22.41
2023-05-01T03:18:33.278Z,22.41
2023-05-01T03:19:33.325Z,22.41
2023-05-01T03:20:33.390Z,22.41
2023-05-01T03:21:33.456Z,22.41
2023-05-01T03:22:33.503Z,22.41
2023-05-01T03:23:33.555Z,22.41
2023-05-01T03:24:33.607Z,22.41
2023-05-01T03:25:33.656Z,22.41
2023-05-01T03:26:33.684Z,22.42
2023-05-01T03:27:33.671Z,22.41
2023-05-01T03:28:33.710Z,22.40
2023-05-01T03:29:33.765Z,22.41
2023-05-01T03:30:33.814Z,22.40
2023-05-01T03:31:33.901Z,22.41
2023-05-01T03:32:33.949Z,22.40
2023-05-01T03:33:33.981Z,22.40
2023-05-01T03:34:34.046Z,22.41
2023-05-01T03:35:34.123Z,22.40
2023-05-01T03:36:34.148Z,22.40
2023-05-01T03:37:34.199Z,22.40
2023-05-01T03:38:34.323Z,22.40
2023-05-01T03:39:34.304Z,22.40
2023-05-01T03:40:34.371Z,22.40
2023-05-01T03:41:34.440Z,22.40
2023-05-01T03:42:34.489Z,22.40
2023-05-01T03:43:34.536Z,22.40
2023-05-01T03:44:34.594Z,22.39
2023-05-01T03:45:34.637Z,22.40
2023-05-01T03:46:34.767Z,22.40
2023-05-01T03:47:34.846Z,22.40
2023-05-01T03:48:34.812Z,22.40
2023-05-01T03:49:34.861Z,22.40
2023-05-01T03:50:34.905Z,22.39
2023-05-01T03:51:34.948Z,22.39
2023-05-01T03:52:34.977Z,22.38
2023-05-01T03:53:35.161Z,22.39
2023-05-01T03:54:35.042Z,22.39
2023-05-01T03:55:35.097Z,22.39
2023-05-01T03:56:35.149Z,22.39
2023-05-01T03:57:35.188Z,22.39
2023-05-01T03:58:35.253Z,22.39
2023-05-01T03:59:35.284Z,22.39
2023-05-01T04:00:35.348Z,22.39
2023-05-01T04:01:35.409Z,22.39
2023-05-01T04:02:35.501Z,22.39
2023-05-01T04:03:35.605Z,22.39
2023-05-01T04:04:35.709Z,22.38
2023-05-01T04:05:35.654Z,22.38
2023-05-01T04:06:35.723Z,22.38
2023-05-01T04:07:35.769Z,22.38
2023-05-01T04:08:35.829Z,22.38
2023-05-01T04:09:35.885Z,22.39
2023-05-01T04:10:35.928Z,22.38
2023-05-01T04:11:36.004Z,22.38
2023-05-01T04:12:36.061Z,22.39
2023-05-01T04:13:36.118Z,22.38
2023-05-01T04:14:36.185Z,22.38
2023-05-01T04:15:36.246Z,22.38
2023-05-01T04:16:36.465Z,22.38
2023-05-01T04:17:36.421Z,22.38
2023-05-01T04:18:36.431Z,22.38
2023-05-01T04:19:36.487Z,22.37
2023-05-01T04:20:36.542Z,22.38
2023-05-01T04:21:36.611Z,22.38
2023-05-01T04:22:36.658Z,22.38
2023-05-01T04:23:36.723Z,22.38
2023-05-01T04:24:36.771Z,22.37
2023-05-01T04:25:36.836Z,22.37
2023-05-01T04:26:36.869Z,22.37
2023-05-01T04:27:36.928Z,22.37
2023-05-01T04:28:36.983Z,22.36
2023-05-01T04:29:37.043Z,22.37
2023-05-01T04:30:37.089Z,22.37
2023-05-01T04:31:37.179Z,22.36
2023-05-01T04:32:37.233Z,22.36
2023-05-01T04:33:37.259Z,22.37
2023-05-01T04:34:37.313Z,22.36
2023-05-01T04:35:37.360Z,22.37
2023-05-01T04:36:37.421Z,22.36
2023-05-01T04:37:37.458Z,22.37
2023-05-01T04:38:37.517Z,22.36
2023-05-01T04:39:37.561Z,22.36
2023-05-01T04:40:37.623Z,22.37
2023-05-01T04:41:37.686Z,22.36
2023-05-01T04:42:37.730Z,22.36
2023-05-01T04:43:37.799Z,22.36
2023-05-01T04:44:37.839Z,22.36
2023-05-01T04:45:37.897Z,22.35
2023-05-01T04:46:37.978Z,22.36
2023-05-01T04:47:37.998Z,22.36
2023-05-01T04:48:38.000Z,22.36
2023-05-01T04:49:38.011Z,22.36
2023-05-01T04:50:38.070Z,22.35
2023-05-01T04:51:38.143Z,22.36
2023-05-01T04:52:38.186Z,22.36
2023-05-01T04:53:38.243Z,22.36
2023-05-01T04:54:38.293Z,22.35
2023-05-01T04:55:38.325Z,22.35
2023-05-01T04:56:38.369Z,22.36
2023-05-01T04:57:38.448Z,22.35
2023-05-01T04:58:38.546Z,22.36
2023-05-01T04:59:38.567Z,22.36
2023-05-01T05:00:38.606Z,22.36
2023-05-01T05:01:38.675Z,22.35
2023-05-01T05:02:38.830Z,22.36
2023-05-01T05:03:38.814Z,22.35
2023-05-01T05:04:38.747Z,22.35
2023-05-01T05:05:38.780Z,22.35
2023-05-01T05:06:38.856Z,22.35
2023-05-01T05:07:38.859Z,22.35
2023-05-01T05:08:38.905Z,22.35
2023-05-01T05:09:38.958Z,22.35
2023-05-01T05:10:38.991Z,22.34
2023-05-01T05:11:39.056Z,22.34
2023-05-01T05:12:39.119Z,22.35
2023-05-01T05:13:39.180Z,22.35
2023-05-01T05:14:39.247Z,22.34
2023-05-01T05:15:39.280Z,22.35
2023-05-01T05:16:39.351Z,22.35
2023-05-01T05:17:39.426Z,22.35
2023-05-01T05:18:39.428Z,22.34
2023-05-01T05:19:39.501Z,22.35
2023-05-01T05:20:39.544Z,22.34
2023-05-01T05:21:39.602Z,22.34
2023-05-01T05:22:39.655Z,22.34
2023-05-01T05:23:39.708Z,22.34
2023-05-01T05:24:39.772Z,22.34
2023-05-01T05:25:39.836Z,22.34
2023-05-01T05:26:39.895Z,22.34
2023-05-01T05:27:39.940Z,22.33
2023-05-01T05:28:39.992Z,22.33
2023-05-01T05:29:40.048Z,22.33
2023-05-01T05:30:40.121Z,22.35
2023-05-01T05:31:40.168Z,22.34
2023-05-01T05:32:40.268Z,22.34
2023-05-01T05:33:40.277Z,22.33
2023-05-01T05:34:40.338Z,22.34
2023-05-01T05:35:40.392Z,22.34
2023-05-01T05:36:40.468Z,22.33
2023-05-01T05:37:40.525Z,22.34
2023-05-01T05:38:40.616Z,22.34
2023-05-01T05:39:40.645Z,22.34
2023-05-01T05:40:40.707Z,22.33
2023-05-01T05:41:40.759Z,22.33
2023-05-01T05:42:40.817Z,22.33
2023-05-01T05:43:40.859Z,22.33
2023-05-01T05:44:40.923Z,22.33
2023-05-01T05:45:41.005Z,22.33
2023-05-01T05:46:41.090Z,22.33
2023-05-01T05:47:41.140Z,22.33
2023-05-01T05:48:41.167Z,22.33
2023-05-01T05:49:41.215Z,22.33
2023-05-01T05:50:41.278Z,22.33
2023-05-01T05:51:41.336Z,22.33
2023-05-01T05:52:41.405Z,22.33
2023-05-01T05:53:41.441Z,22.33
2023-05-01T05:54:41.504Z,22.33
2023-05-01T05:55:41.546Z,22.33
2023-05-01T05:56:41.605Z,22.33
2023-05-01T05:57:41.643Z,22.33
2023-05-01T05:58:41.699Z,22.34
2023-05-01T05:59:41.750Z,22.33
2023-05-01T06:00:41.807Z,22.33
2023-05-01T06:01:41.871Z,22.34
2023-05-01T06:02:42.000Z,22.33
2023-05-01T06:03:42.139Z,22.34
2023-05-01T06:04:42.045Z,22.33
2023-05-01T06:05:42.134Z,22.33
2023-05-01T06:06:42.196Z,22.33
2023-05-01T06:07:42.226Z,22.33
2023-05-01T06:08:42.287Z,22.33
2023-05-01T06:09:42.323Z,22.33
2023-05-01T06:10:42.378Z,22.33
2023-05-01T06:11:42.438Z,22.34
2023-05-01T06:12:44.393Z,22.33
2023-05-01T06:13:43.500Z,22.33
2023-05-01T06:14:42.499Z,22.33
2023-05-01T06:15:42.496Z,22.33
2023-05-01T06:16:42.477Z,22.34
2023-05-01T06:17:42.548Z,22.34
2023-05-01T06:18:44.505Z,22.33
2023-05-01T06:19:42.479Z,22.33
2023-05-01T06:20:42.470Z,22.33
2023-05-01T06:21:42.479Z,22.33
2023-05-01T06:22:42.472Z,22.33
2023-05-01T06:23:42.480Z,22.33
2023-05-01T06:24:42.465Z,22.33
2023-05-01T06:25:42.468Z,22.34
2023-05-01T06:26:42.463Z,22.34
2023-05-01T06:27:42.461Z,22.33
2023-05-01T06:28:42.436Z,22.34
2023-05-01T06:29:42.427Z,22.33
2023-05-01T06:30:42.406Z,22.34
2023-05-01T06:31:42.434Z,22.34
2023-05-01T06:32:42.426Z,22.34
2023-05-01T06:33:42.364Z,22.34
2023-05-01T06:34:42.362Z,22.34
2023-05-01T06:35:42.352Z,22.34
2023-05-01T06:36:42.346Z,22.34
2023-05-01T06:37:42.513Z,22.34
2023-05-01T06:38:42.312Z,22.34
2023-05-01T06:39:42.309Z,22.34
2023-05-01T06:40:42.301Z,22.34
2023-05-01T06:41:42.282Z,22.34
2023-05-01T06:42:42.257Z,22.34
2023-05-01T06:43:42.263Z,22.34
2023-05-01T06:44:42.237Z,22.34
2023-05-01T06:45:42.230Z,22.34
2023-05-01T06:46:42.274Z,22.34
2023-05-01T06:47:42.328Z,22.35
2023-05-01T06:48:42.209Z,22.34
2023-05-01T06:49:42.205Z,22.34
2023-05-01T06:50:42.206Z,22.34
2023-05-01T06:51:42.188Z,22.34
2023-05-01T06:52:42.196Z,22.34
2023-05-01T06:53:42.269Z,22.34
2023-05-01T06:54:42.181Z,22.35
2023-05-01T06:55:42.222Z,22.35
2023-05-01T06:56:42.287Z,22.34
2023-05-01T06:57:42.346Z,22.35
2023-05-01T06:58:42.371Z,22.35
2023-05-01T06:59:42.436Z,22.35
2023-05-01T07:00:42.544Z,22.35
2023-05-01T07:01:42.572Z,22.35
2023-05-01T07:02:42.726Z,22.35
2023-05-01T07:03:42.761Z,22.35
2023-05-01T07:04:42.723Z,22.36
2023-05-01T07:05:42.746Z,22.35
2023-05-01T07:06:42.843Z,22.35
2023-05-01T07:07:50.486Z,22.35
2023-05-01T07:08:43.860Z,22.35
2023-05-01T07:09:42.837Z,22.36
2023-05-01T07:10:42.855Z,22.36
2023-05-01T07:11:42.842Z,22.36
2023-05-01T07:12:42.827Z,22.36
2023-05-01T07:13:42.823Z,22.36
2023-05-01T07:14:42.816Z,22.36
2023-05-01T07:15:42.804Z,22.36
2023-05-01T07:16:42.912Z,22.36
2023-05-01T07:17:42.940Z,22.36
2023-05-01T07:18:42.980Z,22.36
2023-05-01T07:19:43.036Z,22.37
2023-05-01T07:20:43.102Z,22.37
2023-05-01T07:21:43.137Z,22.36
2023-05-01T07:22:43.211Z,22.37
2023-05-01T07:23:43.260Z,22.37
2023-05-01T07:24:43.334Z,22.37
2023-05-01T07:25:43.374Z,22.37
2023-05-01T07:26:43.443Z,22.38
2023-05-01T07:27:43.504Z,22.37
2023-05-01T07:28:43.623Z,22.37
2023-05-01T07:29:43.618Z,22.37
2023-05-01T07:30:43.703Z,22.37
2023-05-01T07:31:43.781Z,22.37
2023-05-01T07:32:43.778Z,22.37
2023-05-01T07:33:43.816Z,22.37
2023-05-01T07:34:43.860Z,22.38
2023-05-01T07:35:43.934Z,22.37
2023-05-01T07:36:43.987Z,22.38
2023-05-01T07:37:44.045Z,22.37
2023-05-01T07:38:44.066Z,22.37
2023-05-01T07:39:44.119Z,22.38
2023-05-01T07:40:44.171Z,22.37
2023-05-01T07:41:44.206Z,22.37
2023-05-01T07:42:44.279Z,22.37
2023-05-01T07:43:44.331Z,22.38
2023-05-01T07:44:44.403Z,22.38
2023-05-01T07:45:44.471Z,22.38
2023-05-01T07:46:44.518Z,22.38
2023-05-01T07:47:44.629Z,22.38
2023-05-01T07:48:44.648Z,22.38
2023-05-01T07:49:44.716Z,22.38
2023-05-01T07:50:45.688Z,22.38
2023-05-01T07:51:44.838Z,22.39
2023-05-01T07:52:44.925Z,22.37
2023-05-01T07:53:44.959Z,22.38
2023-05-01T07:54:45.010Z,22.38
2023-05-01T07:55:45.064Z,22.38
2023-05-01T07:56:45.124Z,22.38
2023-05-01T07:57:45.174Z,22.38
2023-05-01T07:58:45.226Z,22.38
2023-05-01T07:59:45.299Z,22.38
2023-05-01T08:00:45.355Z,22.38
2023-05-01T08:01:45.408Z,22.38
2023-05-01T08:02:45.557Z,22.38
2023-05-01T08:03:46.915Z,22.38
2023-05-01T08:04:45.700Z,22.38
2023-05-01T08:05:45.740Z,22.38
2023-05-01T08:06:45.814Z,22.38
2023-05-01T08:07:45.844Z,22.39
2023-05-01T08:08:45.881Z,22.39
2023-05-01T08:09:45.922Z,22.38
2023-05-01T08:10:45.972Z,22.39
2023-05-01T08:11:46.036Z,22.38
2023-05-01T08:12:46.047Z,22.38
2023-05-01T08:13:46.110Z,22.39
2023-05-01T08:14:46.166Z,22.39
2023-05-01T08:15:46.269Z,22.39
2023-05-01T08:16:46.284Z,22.39
2023-05-01T08:17:46.366Z,22.40
2023-05-01T08:18:46.404Z,22.40
2023-05-01T08:19:46.404Z,22.40
2023-05-01T08:20:46.437Z,22.40
2023-05-01T08:21:46.490Z,22.40
2023-05-01T08:22:46.557Z,22.40
2023-05-01T08:23:46.614Z,22.40
2023-05-01T08:24:46.658Z,22.40
2023-05-01T08:25:46.725Z,22.40
2023-05-01T08:26:46.778Z,22.41
2023-05-01T08:27:46.838Z,22.41
2023-05-01T08:28:46.896Z,22.41
2023-05-01T08:29:46.949Z,22.41
2023-05-01T08:30:46.998Z,22.42
2023-05-01T08:31:47.116Z,22.42
2023-05-01T08:32:47.176Z,22.43
2023-05-01T08:33:47.165Z,22.43
2023-05-01T08:34:47.219Z,22.43
2023-05-01T08:35:48.247Z,22.44
2023-05-01T08:36:47.330Z,22.45
2023-05-01T08:37:48.189Z,22.44
2023-05-01T08:38:47.447Z,22.44
2023-05-01T08:39:47.491Z,22.45
2023-05-01T08:40:47.561Z,22.44
2023-05-01T08:41:47.580Z,22.45
2023-05-01T08:42:47.635Z,22.44
2023-05-01T08:43:47.688Z,22.45
2023-05-01T08:44:47.721Z,22.45
2023-05-01T08:45:47.778Z,22.45
2023-05-01T08:46:47.909Z,22.46
2023-05-01T08:47:47.920Z,22.46
2023-05-01T08:48:47.938Z,22.46
2023-05-01T08:49:47.982Z,22.46
2023-05-01T08:50:48.044Z,22.47
2023-05-01T08:51:48.096Z,22.46
2023-05-01T08:52:48.134Z,22.46
2023-05-01T08:53:48.198Z,22.47
2023-05-01T08:54:48.237Z,22.47
2023-05-01T08:55:48.284Z,22.48
2023-05-01T08:56:48.343Z,22.48
2023-05-01T08:57:48.395Z,22.48
2023-05-01T08:58:48.444Z,22.49
2023-05-01T08:59:48.487Z,22.49
2023-05-01T09:00:48.555Z,22.49
2023-05-01T09:01:48.668Z,22.49
2023-05-01T09:02:48.715Z,22.49
2023-05-01T09:03:48.823Z,22.49
2023-05-01T09:04:48.770Z,22.50
2023-05-01T09:05:48.821Z,22.50
2023-05-01T09:06:48.997Z,22.51
2023-05-01T09:07:48.940Z,22.51
2023-05-01T09:08:48.986Z,22.51
2023-05-01T09:09:49.037Z,22.52
2023-05-01T09:10:49.094Z,22.52
2023-05-01T09:11:49.139Z,22.53
2023-05-01T09:12:49.189Z,22.53
2023-05-01T09:13:49.242Z,22.53
2023-05-01T09:14:49.290Z,22.54
2023-05-01T09:15:49.347Z,22.54
2023-05-01T09:16:49.505Z,22.55
2023-05-01T09:17:49.461Z,22.54
2023-05-01T09:18:49.488Z,22.55
2023-05-01T09:19:49.541Z,22.56
2023-05-01T09:20:49.597Z,22.56
2023-05-01T09:21:49.654Z,22.57
2023-05-01T09:22:49.693Z,22.57
2023-05-01T09:23:49.745Z,22.57
2023-05-01T09:24:49.793Z,22.58
2023-05-01T09:25:51.979Z,22.58
2023-05-01T09:26:49.880Z,22.59
2023-05-01T09:27:49.940Z,22.59
2023-05-01T09:28:50.002Z,22.60
2023-05-01T09:29:50.038Z,22.60
2023-05-01T09:30:50.074Z,22.60
2023-05-01T09:31:50.189Z,22.60
2023-05-01T09:32:50.203Z,22.61
2023-05-01T09:33:50.571Z,22.61
2023-05-01T09:34:50.264Z,22.61
2023-05-01T09:35:50.306Z,22.62
2023-05-01T09:36:50.359Z,22.61
2023-05-01T09:37:50.405Z,22.62
2023-05-01T09:38:50.451Z,22.62
2023-05-01T09:39:50.495Z,22.63
2023-05-01T09:40:50.539Z,22.62
2023-05-01T09:41:50.590Z,22.63
2023-05-01T09:42:50.648Z,22.62
2023-05-01T09:43:50.686Z,22.64
2023-05-01T09:44:50.740Z,22.63
2023-05-01T09:45:50.817Z,22.64
2023-05-01T09:46:50.847Z,22.63
2023-05-01T09:47:50.904Z,22.64
2023-05-01T09:48:50.924Z,22.64
2023-05-01T09:49:51.094Z,22.64
2023-05-01T09:50:51.139Z,22.64
2023-05-01T09:51:51.141Z,22.64
2023-05-01T09:52:51.111Z,22.65
2023-05-01T09:53:51.174Z,22.65
2023-05-01T09:54:51.276Z,22.65
2023-05-01T09:55:51.243Z,22.65
2023-05-01T09:56:51.305Z,22.65
2023-05-01T09:57:51.334Z,22.65
2023-05-01T09:58:51.359Z,22.66
2023-05-01T09:59:51.424Z,22.66
2023-05-01T10:00:51.519Z,22.66
2023-05-01T10:01:51.538Z,22.66
2023-05-01T10:02:51.668Z,22.66
2023-05-01T10:03:51.769Z,22.66
2023-05-01T10:04:51.647Z,22.66
2023-05-01T10:05:51.696Z,22.66
2023-05-01T10:06:51.789Z,22.66
2023-05-01T10:07:51.759Z,22.67
2023-05-01T10:08:51.807Z,22.66
2023-05-01T10:09:51.843Z,22.66
2023-05-01T10:10:51.880Z,22.66
2023-05-01T10:11:51.914Z,22.66
2023-05-01T10:12:51.969Z,22.66
2023-05-01T10:13:52.002Z,22.67
2023-05-01T10:14:52.047Z,22.67
2023-05-01T10:15:52.091Z,22.66
2023-05-01T10:16:52.168Z,22.67
2023-05-01T10:17:52.274Z,22.67
2023-05-01T10:18:52.205Z,22.67
2023-05-01T10:19:52.256Z,22.67
2023-05-01T10:20:52.302Z,22.67
2023-05-01T10:21:52.334Z,22.67
2023-05-01T10:22:52.393Z,22.67
2023-05-01T10:23:52.396Z,22.67
2023-05-01T10:24:52.434Z,22.66
2023-05-01T10:25:52.494Z,22.67
2023-05-01T10:26:52.522Z,22.67
2023-05-01T10:27:52.562Z,22.67
2023-05-01T10:28:52.602Z,22.68
2023-05-01T10:29:52.649Z,22.67
2023-05-01T10:30:52.700Z,22.68
2023-05-01T10:31:52.972Z,22.67
2023-05-01T10:32:52.818Z,22.68
2023-05-01T10:33:52.807Z,22.68
2023-05-01T10:34:52.813Z,22.68
2023-05-01T10:35:52.856Z,22.67
2023-05-01T10:36:52.903Z,22.68
2023-05-01T10:37:52.944Z,22.68
2023-05-01T10:38:52.977Z,22.68
2023-05-01T10:39:53.072Z,22.69
2023-05-01T10:40:53.081Z,22.67
2023-05-01T10:41:53.104Z,22.68
2023-05-01T10:42:53.147Z,22.67
2023-05-01T10:43:53.175Z,22.68
2023-05-01T10:44:53.200Z,22.68
2023-05-01T10:45:53.294Z,22.69
2023-05-01T10:46:53.342Z,22.68
2023-05-01T10:47:53.419Z,22.68
2023-05-01T10:48:53.377Z,22.69
2023-05-01T10:49:53.390Z,22.68
2023-05-01T10:50:53.432Z,22.68
2023-05-01T10:51:53.476Z,22.69
2023-05-01T10:52:53.517Z,22.68
2023-05-01T10:53:53.550Z,22.69
2023-05-01T10:54:53.601Z,22.69
2023-05-01T10:55:53.649Z,22.69
2023-05-01T10:56:53.659Z,22.68
2023-05-01T10:57:53.703Z,22.68
2023-05-01T10:58:53.734Z,22.69
2023-05-01T10:59:53.770Z,22.69
2023-05-01T11:00:53.809Z,22.68
2023-05-01T11:01:54.110Z,22.68
2023-05-01T11:02:53.925Z,22.69
2023-05-01T11:03:53.938Z,22.68
2023-05-01T11:04:54.230Z,22.68
2023-05-01T11:05:54.034Z,22.68
2023-05-01T11:06:54.101Z,22.68
2023-05-01T11:07:54.150Z,22.68
2023-05-01T11:08:54.139Z,22.68
2023-05-01T11:09:54.187Z,22.67
2023-05-01T11:10:54.221Z,22.68
2023-05-01T11:11:54.264Z,22.68
2023-05-01T11:12:54.325Z,22.68
2023-05-01T11:13:54.370Z,22.67
2023-05-01T11:14:54.736Z,22.67
2023-05-01T11:15:54.479Z,22.68
2023-05-01T11:16:54.673Z,22.67
2023-05-01T11:17:54.537Z,22.68
2023-05-01T11:18:54.526Z,22.67
2023-05-01T11:19:54.559Z,22.67
2023-05-01T11:20:54.613Z,22.67
2023-05-01T11:21:54.642Z,22.67
2023-05-01T11:22:54.755Z,22.67
2023-05-01T11:23:54.709Z,22.67
2023-05-01T11:24:55.098Z,22.67
2023-05-01T11:25:54.796Z,22.67
2023-05-01T11:26:54.832Z,22.67
2023-05-01T11:27:54.883Z,22.67
2023-05-01T11:28:54.916Z,22.67
2023-05-01T11:29:54.955Z,22.66
2023-05-01T11:30:54.997Z,22.66
2023-05-01T11:31:55.061Z,22.66
2023-05-01T11:32:55.180Z,22.67
2023-05-01T11:33:55.116Z,22.66
2023-05-01T11:34:55.376Z,22.66
2023-05-01T11:35:55.193Z,22.66
2023-05-01T11:36:55.239Z,22.67
2023-05-01T11:37:55.279Z,22.67
2023-05-01T11:38:55.314Z,22.67
2023-05-01T11:39:55.362Z,22.66
2023-05-01T11:40:55.410Z,22.66
2023-05-01T11:41:55.465Z,22.66
2023-05-01T11:42:55.510Z,22.67
2023-05-01T11:43:55.539Z,22.65
2023-05-01T11:44:55.771Z,22.67
2023-05-01T11:45:55.634Z,22.67
2023-05-01T11:46:55.653Z,22.66
2023-05-01T11:47:55.720Z,22.66
2023-05-01T11:48:55.720Z,22.66
2023-05-01T11:49:55.756Z,22.66
2023-05-01T11:50:55.804Z,22.67
2023-05-01T11:51:55.828Z,22.65
2023-05-01T11:52:55.884Z,22.65
2023-05-01T11:53:55.909Z,22.66
2023-05-01T11:54:55.944Z,22.66
2023-05-01T11:55:55.990Z,22.66
2023-05-01T11:56:56.028Z,22.66
2023-05-01T11:57:56.083Z,22.66
2023-05-01T11:58:56.126Z,22.65
2023-05-01T11:59:56.176Z,22.66
2023-05-01T12:00:56.226Z,22.65
2023-05-01T12:01:56.306Z,22.65
2023-05-01T12:02:56.407Z,22.64
2023-05-01T12:03:56.406Z,22.64
2023-05-01T12:04:56.685Z,22.64
2023-05-01T12:05:56.445Z,22.64
2023-05-01T12:06:56.505Z,22.64
2023-05-01T12:07:56.548Z,22.64
2023-05-01T12:08:56.592Z,22.63
2023-05-01T12:09:56.637Z,22.63
2023-05-01T12:10:56.688Z,22.63
2023-05-01T12:11:56.723Z,22.63
2023-05-01T12:12:56.776Z,22.62
2023-05-01T12:13:56.829Z,22.62
2023-05-01T12:14:57.125Z,22.61
2023-05-01T12:15:56.951Z,22.62
2023-05-01T12:16:57.020Z,22.62
2023-05-01T12:17:57.173Z,22.62
2023-05-01T12:18:57.043Z,22.61
2023-05-01T12:19:57.087Z,22.61
2023-05-01T12:20:57.143Z,22.61
2023-05-01T12:21:57.177Z,22.60
2023-05-01T12:22:57.232Z,22.60
2023-05-01T12:23:57.287Z,22.60
2023-05-01T12:24:57.443Z,22.60
2023-05-01T12:25:57.357Z,22.60
2023-05-01T12:26:57.410Z,22.59
2023-05-01T12:27:57.457Z,22.59
2023-05-01T12:28:57.496Z,22.59
2023-05-01T12:29:57.544Z,22.59
2023-05-01T12:30:57.591Z,22.58
2023-05-01T12:31:57.712Z,22.58
2023-05-01T12:32:57.722Z,22.58
2023-05-01T12:33:57.756Z,22.58
2023-05-01T12:34:57.990Z,22.58
2023-05-01T12:35:58.789Z,22.58
2023-05-01T12:36:57.878Z,22.57
2023-05-01T12:37:57.929Z,22.57
2023-05-01T12:38:57.976Z,22.58
2023-05-01T12:39:58.012Z,22.58
2023-05-01T12:40:58.057Z,22.57
2023-05-01T12:41:58.099Z,22.57
2023-05-01T12:42:58.183Z,22.57
2023-05-01T12:43:58.187Z,22.56
2023-05-01T12:44:58.781Z,22.57
2023-05-01T12:45:58.316Z,22.56
2023-05-01T12:46:58.466Z,22.56
2023-05-01T12:47:58.490Z,22.56
2023-05-01T12:48:58.393Z,22.57
2023-05-01T12:49:58.873Z,22.56
2023-05-01T12:50:58.492Z,22.56
2023-05-01T12:51:58.531Z,22.55
2023-05-01T12:52:58.581Z,22.56